Condiciones actuales en los principales Aeropuertos de España-Datos Metar

 

LEAL - Alicante
Actualización: 20/08/2018 18:30
Despejado
Despejado
 Viento del E
Viento: E 13 km/h
Temperatura: 29°C
Heat Index: 29°C
Rocío: 18°C
Humedad: 51%
Barómetro: 1017 hPa
Resumen: Despejado
Visibilidad: greater than 10 km
2018/08/20 16:30 LEAL 201630Z 10007KT 070V160 CAVOK 29/18 Q1017 NOSIG
LEAB - Albacete
Actualización: 20/08/2018 18:00
Despejado
Despejado
 Viento del varies
Viento: varies 9 km/h
Temperatura: 30°C
Rocío: 7°C
Humedad: 24%
Barómetro: 1019 hPa
Resumen: Despejado
Visibilidad: greater than 10 km
2018/08/20 16:00 LEAB 201600Z VRB05KT CAVOK 30/07 Q1019 NOSIG
LEAM - Almería
Actualización: 20/08/2018 18:30
Few Clouds
Few Clouds
 Viento del E
Viento: E 31 km/h
Temperatura: 31°C
Heat Index: 33°C
Rocío: 20°C
Humedad: 52%
Barómetro: 1015 hPa
Nubosidad: Few Clouds
Visibilidad: 10 km
Cloud details: Few Clouds 762 m
2018/08/20 16:30 LEAM 201630Z 08017KT 050V120 9999 FEW025 31/20 Q1015
 
LEAS - Asturias/Aviles
Actualización: 20/08/2018 18:30
Few Clouds
Few Clouds
 Viento del E
Viento: E 17 km/h
Temperatura: 23°C
Rocío: 18°C
Humedad: 74%
Barómetro: 1021 hPa
Nubosidad: Few Clouds
Visibilidad: 10 km
Cloud details: Few Clouds 610 m
2018/08/20 16:30 LEAS 201630Z 09009KT 050V120 9999 FEW020 23/18 Q1021 NOSIG
LEBZ - Badajoz/Talavera la Real
Actualización: 20/08/2018 18:00
Few Clouds
Few Clouds
 Viento del E
Viento: E 7 km/h
Temperatura: 37°C
Rocío: 12°C
Humedad: 22%
Barómetro: 1014 hPa
Nubosidad: Few Clouds
Visibilidad: 10 km
Cloud details: Few Clouds 1372 m
2018/08/20 16:00 LEBZ 201600Z 10004KT 050V210 9999 FEW045 37/12 Q1014
LEBL - Barcelona
Actualización: 20/08/2018 18:30
Despejado
Despejado
 Viento del ESE
Viento: ESE 13 km/h
Temperatura: 28°C
Heat Index: 30°C
Rocío: 22°C
Humedad: 70%
Barómetro: 1016 hPa
Resumen: Despejado
Visibilidad: greater than 10 km
2018/08/20 16:30 LEBL 201630Z 11007KT 080V150 CAVOK 28/22 Q1016 NOSIG
 
LEBB - Bilbao
Actualización: 20/08/2018 18:30
Few Clouds
Few Clouds
 Viento del NNO
Viento: NNO 11 km/h
Temperatura: 25°C
Rocío: 16°C
Humedad: 57%
Barómetro: 1021 hPa
Nubosidad: Few Clouds
Visibilidad: 10 km
Cloud details: Few Clouds 914 m
2018/08/20 16:30 LEBB 201630Z 34006KT 280V030 9999 FEW030 25/16 Q1021 NOSIG
LEBG - Burgos/Villafría
Actualización: 20/08/2018 18:30
Few Clouds
Few Clouds
 Viento del NE
Viento: NE 26 km/h
Temperatura: 26°C
Rocío: 9°C
Humedad: 34%
Barómetro: 1021 hPa
Nubosidad: Few Clouds
Visibilidad: 10 km
Cloud details: Few Clouds 1067 m
2018/08/20 16:30 LEBG 201630Z 04014KT 360V070 9999 FEW035 26/09 Q1021
LEBA - Córdoba
Actualización: 20/08/2018 18:30
Few Clouds
Few Clouds
 Viento del ONO
Viento: ONO 11 km/h
Temperatura: 35°C
Rocío: 16°C
Humedad: 32%
Barómetro: 1013 hPa
Nubosidad: Few Clouds
Visibilidad: 10 km
Cloud details: Few Clouds 1372 m
2018/08/20 16:30 LEBA 201630Z 30006KT 250V340 9999 FEW045CB 35/16 Q1013
 
LEGE - Gerona
Actualización: 20/08/2018 18:30
Despejado
Despejado
 Viento del SSO
Viento: SSO 17 km/h
Temperatura: 29°C
Heat Index: 29°C
Rocío: 15°C
Humedad: 43%
Barómetro: 1016 hPa
Resumen: Despejado
Visibilidad: greater than 10 km
2018/08/20 16:30 LEGE 201630Z 21009KT 160V250 CAVOK 29/15 Q1016
LEGR - Granada
Actualización: 20/08/2018 18:30
Few Clouds
Few Clouds
 Viento del SO
Viento: SO 17 km/h
Temperatura: 31°C
Rocío: 15°C
Humedad: 38%
Barómetro: 1016 hPa
Nubosidad: Few Clouds
Visibilidad: 10 km
Cloud details: Few Clouds 1524 m
2018/08/20 16:30 LEGR 201630Z 23009KT 200V260 9999 FEW050TCU 31/15 Q1016
GCHI - Hierro
Actualización: 20/08/2018 18:30
Few Clouds
Few Clouds
 Viento del N
Viento: N 24 km/h
Temperatura: 25°C
Rocío: 17°C
Humedad: 61%
Barómetro: 1016 hPa
Nubosidad: Few Clouds
Visibilidad: 10 km
Cloud details: Few Clouds 1067 m
2018/08/20 16:30 GCHI 201630Z 35013KT 9999 FEW035 25/17 Q1016
 
LEIB - Ibiza
Actualización: 20/08/2018 18:30
Few Clouds
Few Clouds
 Viento del SSO
Viento: SSO 11 km/h
Temperatura: 30°C
Heat Index: 31°C
Rocío: 18°C
Humedad: 49%
Barómetro: 1016 hPa
Nubosidad: Few Clouds
Visibilidad: 10 km
Cloud details: Few Clouds 1372 m
2018/08/20 16:30 LEIB 201630Z 21006KT 180V240 9999 FEW045 30/18 Q1016 NOSIG
LEJR - Jerez de la Frontera
Actualización: 20/08/2018 19:00
Despejado
Despejado
 Viento del ESE
Viento: ESE 19 km/h
Temperatura: 35°C
Rocío: 14°C
Humedad: 28%
Barómetro: 1013 hPa
Resumen: Despejado
Visibilidad: greater than 10 km
2018/08/20 17:00 LEJR 201700Z 12010KT 060V170 CAVOK 35/14 Q1013
LECO - A Coruña
Actualización: 20/08/2018 18:30
Despejado
Despejado
 Viento del N
Viento: N 13 km/h
Temperatura: 27°C
Heat Index: 28°C
Rocío: 18°C
Humedad: 58%
Barómetro: 1018 hPa
Resumen: Despejado
Visibilidad: greater than 10 km
2018/08/20 16:30 LECO 201630Z 36007KT 320V060 CAVOK 27/18 Q1018 NOSIG
 
GCLA - La Palma
Actualización: 20/08/2018 18:30
Partly Cloudy
Partly Cloudy
 Viento del ENE
Viento: ENE 13 km/h
Temperatura: 25°C
Rocío: 18°C
Humedad: 65%
Barómetro: 1016 hPa
Nubosidad: Partly Cloudy
Visibilidad: 10 km
Cloud details: Partly Cloudy 914 m
2018/08/20 16:30 GCLA 201630Z 06007KT 010V110 9999 SCT030 25/18 Q1016
GCRR - Lanzarote
Actualización: 20/08/2018 18:30
Few Clouds
Few Clouds
 Viento del S
Viento: S 9 km/h
Temperatura: 25°C
Rocío: 20°C
Humedad: 74%
Barómetro: 1014 hPa
Nubosidad: Few Clouds
Visibilidad: 10 km
Cloud details: Few Clouds 762 m
2018/08/20 16:30 GCRR 201630Z 18005KT 140V230 9999 FEW025 25/20 Q1014
GCLP - Las Palmas
Actualización: 20/08/2018 18:30
Few Clouds
Few Clouds
 Viento del NNE
Viento: NNE 46 km/h
Temperatura: 26°C
Rocío: 18°C
Humedad: 61%
Barómetro: 1013 hPa
Nubosidad: Few Clouds
Visibilidad: 10 km
Cloud details: Few Clouds 762 m
2018/08/20 16:30 GCLP 201630Z 02025KT 9999 FEW025 26/18 Q1013 NOSIG
 
LELN - León
Actualización: 20/08/2018 18:30
Despejado
Despejado
 Viento del ESE
Viento: ESE 6 km/h
Temperatura: 29°C
Rocío: 4°C
Humedad: 20%
Barómetro: 1021 hPa
Resumen: Despejado
Visibilidad: greater than 10 km
2018/08/20 16:30 LELN 201630Z 11003KT 080V190 CAVOK 29/04 Q1021
LELO - Logroño
Actualización: 20/08/2018 18:30
Despejado
Despejado
 Viento del ONO
Viento: ONO 17 km/h
Temperatura: 31°C
Rocío: 12°C
Humedad: 31%
Barómetro: 1018 hPa
Resumen: Despejado
Visibilidad: greater than 10 km
2018/08/20 16:30 LELO 201630Z 30009KT 260V340 CAVOK 31/12 Q1018
LECV - Madrid/Colmenar
Actualización: 20/08/2018 18:00
Few Clouds
Few Clouds
 Viento del SO
Viento: SO 9 km/h
Temperatura: 31°C
Rocío: 7°C
Humedad: 22%
Barómetro: 1020 hPa
Nubosidad: Few Clouds
Visibilidad: 10 km
Cloud details: Few Clouds 1829 m
2018/08/20 16:00 LECV 201600Z 22005KT 9999 FEW060 31/07 Q1020
 
LEMD - Madrid/Barajas
Actualización: 20/08/2018 18:30
Despejado
Despejado
 Viento del SSE
Viento: SSE 13 km/h
Temperatura: 33°C
Rocío: 7°C
Humedad: 20%
Barómetro: 1017 hPa
Resumen: Despejado
Visibilidad: greater than 10 km
2018/08/20 16:30 LEMD 201630Z 15007KT 110V210 CAVOK 33/07 Q1017 NOSIG
LEVS - Madrid/Cuatro Vientos
Actualización: 20/08/2018 18:30
Despejado
Despejado
 Viento del NE
Viento: NE 6 km/h
Temperatura: 32°C
Rocío: 8°C
Humedad: 22%
Barómetro: 1018 hPa
Resumen: Despejado
Visibilidad: greater than 10 km
2018/08/20 16:30 LEVS 201630Z 04003KT 320V120 CAVOK 32/08 Q1018
LEGT - Madrid/Getafe
Actualización: 20/08/2018 18:00
Despejado
Despejado
 Viento del N
Viento: N 9 km/h
Temperatura: 33°C
Rocío: 7°C
Humedad: 20%
Barómetro: 1018 hPa
Resumen: Despejado
Visibilidad: greater than 10 km
2018/08/20 16:00 LEGT 201600Z 01005KT 290V060 CAVOK 33/07 Q1018
 
LETO - Madrid/Torrejón
Actualización: 20/08/2018 18:00
Few Clouds
Few Clouds
 Viento del SE
Viento: SE 9 km/h
Temperatura: 33°C
Rocío: 6°C
Humedad: 18%
Barómetro: 1018 hPa
Nubosidad: Few Clouds
Visibilidad: 10 km
Cloud details: Few Clouds 1981 m
2018/08/20 16:00 LETO 201600Z 14005KT 110V210 9999 FEW065 33/06 Q1018 NOSIG
LEMG - Málaga
Actualización: 20/08/2018 18:30
Few Clouds
Few Clouds
 Viento del ESE
Viento: ESE 15 km/h
Temperatura: 27°C
Heat Index: 29°C
Rocío: 21°C
Humedad: 70%
Barómetro: 1016 hPa
Nubosidad: Few Clouds
Visibilidad: 10 km
Cloud details: Few Clouds 762 m
2018/08/20 16:30 LEMG 201630Z 12008KT 090V160 9999 FEW025 27/21 Q1016 NOSIG
GEML - Melilla
Actualización: 20/08/2018 18:30
Few Clouds
Few Clouds
 Viento del E
Viento: E 15 km/h
Temperatura: 27°C
Heat Index: 29°C
Rocío: 21°C
Humedad: 70%
Barómetro: 1016 hPa
Nubosidad: Few Clouds
Visibilidad: 10 km
Cloud details: Few Clouds 610 m
2018/08/20 16:30 GEML 201630Z 08008KT 030V140 9999 FEW020 27/21 Q1016
 
LEMH - Mahón
Actualización: 20/08/2018 18:30
Despejado
Despejado
 Viento del N
Viento: N 26 km/h
Temperatura: 28°C
Heat Index: 28°C
Rocío: 15°C
Humedad: 45%
Barómetro: 1016 hPa
Resumen: Despejado
Visibilidad: greater than 10 km
2018/08/20 16:30 LEMH 201630Z 01014KT CAVOK 28/15 Q1016
LEMO - Morón de La Frontera
Actualización: 20/08/2018 15:00
NO Actualizado
Despejado
Despejado
 Viento del E
Viento: E 6 km/h
Temperatura: 35°C
Rocío: 11°C
Humedad: 23%
Barómetro: 1015 hPa
Resumen: Despejado
Visibilidad: greater than 10 km
2018/08/20 13:00 LEMO 201300Z 08003KT CAVOK 35/11 Q1015 NOSIG
LERI - Murcia/Alcantarilla
Actualización: 20/08/2018 18:00
Few Clouds
Few Clouds
 Viento del E
Viento: E 15 km/h
Temperatura: 32°C
Rocío: 14°C
Humedad: 33%
Barómetro: 1016 hPa
Nubosidad: Few Clouds
Visibilidad: 10 km
Cloud details: Few Clouds 1524 m
2018/08/20 16:00 LERI 201600Z 09008KT 060V140 9999 FEW050 32/14 Q1016 NOSIG
 
LELC - Murcia/San Javier
Actualización: 20/08/2018 18:30
Despejado
Despejado
 Viento del E
Viento: E 15 km/h
Temperatura: 28°C
Heat Index: 29°C
Rocío: 20°C
Humedad: 62%
Barómetro: 1017 hPa
Resumen: Despejado
Visibilidad: greater than 10 km
2018/08/20 16:30 LELC 201630Z 09008KT 050V130 CAVOK 28/20 Q1017 NOSIG
LEPA - Palma de Mallorca
Actualización: 20/08/2018 18:30
Few Clouds
Few Clouds
 Viento del SSO
Viento: SSO 17 km/h
Temperatura: 31°C
Heat Index: 33°C
Rocío: 20°C
Humedad: 52%
Barómetro: 1016 hPa
Nubosidad: Few Clouds
Visibilidad: 10 km
Cloud details: Few Clouds 762 m
2018/08/20 16:30 LEPA 201630Z 21009KT 180V240 9999 FEW025 31/20 Q1016 NOSIG
LEPP - Pamplona
Actualización: 20/08/2018 18:30
Despejado
Despejado
 Viento del NO
Viento: NO 26 km/h
Temperatura: 26°C
Rocío: 16°C
Humedad: 54%
Barómetro: 1019 hPa
Resumen: Despejado
Visibilidad: greater than 10 km
2018/08/20 16:30 LEPP 201630Z 32014KT CAVOK 26/16 Q1019
 
LERS - Reus
Actualización: 20/08/2018 18:30
Despejado
Despejado
 Viento del SSO
Viento: SSO 19 km/h
Temperatura: 30°C
Heat Index: 31°C
Rocío: 18°C
Humedad: 49%
Barómetro: 1015 hPa
Resumen: Despejado
Visibilidad: greater than 10 km
2018/08/20 16:30 LERS 201630Z 20010KT 150V240 CAVOK 30/18 Q1015
LERT - Rota
Actualización: 20/08/2018 18:00
Despejado
Despejado
 Viento del ESE
Viento: ESE 31 km/h
Temperatura: 33°C
Rocío: 16°C
Humedad: 36%
Barómetro: 1013 hPa
Resumen: Despejado
Visibilidad: greater than 10 km
2018/08/20 16:00 LERT 201600Z 12017KT CAVOK 33/16 Q1013 NOSIG
LELL - Sabadell
Actualización: 20/08/2018 18:30
Few Clouds
Few Clouds
 Viento del ESE
Viento: ESE 17 km/h
Temperatura: 29°C
Heat Index: 31°C
Rocío: 20°C
Humedad: 58%
Barómetro: 1016 hPa
Nubosidad: Few Clouds
Visibilidad: 10 km
Cloud details: Few Clouds 1372 m
2018/08/20 16:30 LELL 201630Z 12009KT 070V150 9999 FEW045 29/20 Q1016
 
LESA - Salamanca
Actualización: 20/08/2018 18:30
Few Clouds
Few Clouds
 Viento del ENE
Viento: ENE 7 km/h
Temperatura: 31°C
Rocío: 6°C
Humedad: 21%
Barómetro: 1019 hPa
Nubosidad: Few Clouds
Visibilidad: 10 km
Cloud details: Few Clouds 1067 m
2018/08/20 16:30 LESA 201630Z 07004KT 330V140 9999 FEW035 31/06 Q1019
LESO - San Sebastián
Actualización: 20/08/2018 18:30
Few Clouds
Few Clouds
 Viento del NNE
Viento: NNE 11 km/h
Temperatura: 24°C
Rocío: 19°C
Humedad: 74%
Barómetro: 1021 hPa
Nubosidad: Few Clouds
Visibilidad: 10 km
Cloud details: Few Clouds 732 m
2018/08/20 16:30 LESO 201630Z 03006KT 340V060 9999 FEW024 24/19 Q1021
LEXJ - Santander
Actualización: 20/08/2018 18:30
Despejado
Despejado
 Viento del NE
Viento: NE 15 km/h
Temperatura: 23°C
Rocío: 19°C
Humedad: 78%
Barómetro: 1021 hPa
Resumen: Despejado
Visibilidad: greater than 10 km
2018/08/20 16:30 LEXJ 201630Z 05008KT 340V100 CAVOK 23/19 Q1021
 
LEPA - Palma de Mallorca
Actualización: 20/08/2018 18:30
Few Clouds
Few Clouds
 Viento del SSO
Viento: SSO 17 km/h
Temperatura: 31°C
Heat Index: 33°C
Rocío: 20°C
Humedad: 52%
Barómetro: 1016 hPa
Nubosidad: Few Clouds
Visibilidad: 10 km
Cloud details: Few Clouds 762 m
2018/08/20 16:30 LEPA 201630Z 21009KT 180V240 9999 FEW025 31/20 Q1016 NOSIG
LEPP - Pamplona
Actualización: 20/08/2018 18:30
Despejado
Despejado
 Viento del NO
Viento: NO 26 km/h
Temperatura: 26°C
Rocío: 16°C
Humedad: 54%
Barómetro: 1019 hPa
Resumen: Despejado
Visibilidad: greater than 10 km
2018/08/20 16:30 LEPP 201630Z 32014KT CAVOK 26/16 Q1019
LEST - Santiago de Compostela
Actualización: 20/08/2018 18:30
Despejado
Despejado
 Viento del NNE
Viento: NNE 19 km/h
Temperatura: 30°C
Heat Index: 31°C
Rocío: 19°C
Humedad: 52%
Barómetro: 1018 hPa
Resumen: Despejado
Visibilidad: greater than 10 km
2018/08/20 16:30 LEST 201630Z 03010KT 350V060 CAVOK 30/19 Q1018 NOSIG
 
LEZL - Sevilla
Actualización: 20/08/2018 18:30
Despejado
Despejado
 Viento del E
Viento: E 11 km/h
Temperatura: 36°C
Rocío: 12°C
Humedad: 23%
Barómetro: 1012 hPa
Resumen: Despejado
Visibilidad: greater than 10 km
2018/08/20 16:30 LEZL 201630Z 08006KT 020V120 CAVOK 36/12 Q1012 NOSIG
GCXO - Tenerife
Actualización: 20/08/2018 18:30
Few Clouds
Few Clouds
 Viento del ONO
Viento: ONO 24 km/h
Temperatura: 20°C
Rocío: 16°C
Humedad: 78%
Barómetro: 1017 hPa
Nubosidad: Few Clouds
Visibilidad: 10 km
Cloud details: Few Clouds 305 m
2018/08/20 16:30 GCXO 201630Z 29013KT 9999 FEW010 20/16 Q1017 NOSIG
GCTS - Tenerife-Sur
Actualización: 20/08/2018 18:30
Few Clouds
Few Clouds
 Viento del ESE
Viento: ESE 15 km/h
Temperatura: 25°C
Rocío: 19°C
Humedad: 69%
Barómetro: 1015 hPa
Nubosidad: Few Clouds
Visibilidad: 10 km
Cloud details: Few Clouds 762 m
2018/08/20 16:30 GCTS 201630Z 12008KT 070V150 9999 FEW025 25/19 Q1015 NOSIG
 
LEVC - Valencia
Actualización: 20/08/2018 18:30
Few Clouds
Few Clouds
 Viento del SE
Viento: SE 22 km/h
Temperatura: 31°C
Rocío: 14°C
Humedad: 35%
Barómetro: 1016 hPa
Nubosidad: Few Clouds
Visibilidad: 10 km
Cloud details: Few Clouds 762 m
2018/08/20 16:30 LEVC 201630Z 14012KT 110V170 9999 FEW025 31/14 Q1016 NOSIG
LEVD - Valladolid
Actualización: 20/08/2018 18:30
Despejado
Despejado
 Viento del ENE
Viento: ENE 15 km/h
Temperatura: 29°C
Rocío: 7°C
Humedad: 25%
Barómetro: 1020 hPa
Resumen: Despejado
Visibilidad: greater than 10 km
2018/08/20 16:30 LEVD 201630Z 07008KT 030V110 CAVOK 29/07 Q1020
LEVX - Vigo
Actualización: 20/08/2018 18:30
Despejado
Despejado
 Viento del ONO
Viento: ONO 11 km/h
Temperatura: 34°C
Rocío: 15°C
Humedad: 32%
Barómetro: 1016 hPa
Resumen: Despejado
Visibilidad: greater than 10 km
2018/08/20 16:30 LEVX 201630Z 29006KT 250V340 CAVOK 34/15 Q1016 NOSIG
 
LEVT - Vitoria
Actualización: 20/08/2018 18:30
Few Clouds
Few Clouds
 Viento del N
Viento: N 24 km/h
Temperatura: 24°C
Rocío: 15°C
Humedad: 57%
Barómetro: 1021 hPa
Nubosidad: Few Clouds
Visibilidad: 10 km
Cloud details: Few Clouds 1067 m
2018/08/20 16:30 LEVT 201630Z 01013KT 330V050 9999 FEW035 24/15 Q1021
LEZG - Zaragoza
Actualización: 20/08/2018 18:30
Despejado
Despejado
 Viento del NO
Viento: NO 13 km/h
Temperatura: 31°C
Rocío: 8°C
Humedad: 24%
Barómetro: 1016 hPa
Resumen: Despejado
Visibilidad: greater than 10 km
2018/08/20 16:30 LEZG 201630Z 31007KT 270V350 CAVOK 31/08 Q1016

La estación de MeteoMurcia.com, publica sus datos en los siguientes proyectos:

Meteoclimatic www.awekas.at

W3Counter
Web Analytics